Time;durP1;ratioP1;P1;durP2;ratioP2;P2;SDS_P1;SDS_P2;PMS_P1;PMS_P2;Temp;Humidity;BMP_temperature;BMP_pressure;BME280_temperature;BME280_humidity;BME280_pressure;Samples;Min_cycle;Max_cycle;Signal;HPM_P1;HPM_P2
2022/07/26 00:01:04;;;;;;;;;;;23.40;99.90;;;;;;5075150;28;20277;-58
2022/07/26 00:03:30;;;;;;;;;;;23.10;99.90;;;;;;5079656;28;19920;-58
2022/07/26 00:05:56;;;;;;;;;;;22.90;99.90;;;;;;5095496;28;19919;-56
2022/07/26 00:08:22;;;;;;;;;;;22.70;99.90;;;;;;5093037;28;19931;-59
2022/07/26 00:10:48;;;;;;;;;;;22.60;99.90;;;;;;5094283;28;19913;-58
2022/07/26 00:13:16;;;;;;;;;;;22.50;99.90;;;;;;5092053;28;20449;-57
2022/07/26 00:15:42;;;;;;;;;;;22.50;99.90;;;;;;5074654;28;19924;-58
2022/07/26 00:18:07;;;;;;;;;;;22.50;99.90;;;;;;5076406;28;19919;-54
2022/07/26 00:20:33;;;;;;;;;;;22.30;99.90;;;;;;5076025;28;19912;-57
2022/07/26 00:22:59;;;;;;;;;;;22.30;99.90;;;;;;5086116;28;20284;-53
2022/07/26 00:25:24;;;;;;;;;;;22.40;99.90;;;;;;5094164;28;19959;-54
2022/07/26 00:27:50;;;;;;;;;;;22.60;99.90;;;;;;5093013;28;20345;-53
2022/07/26 00:30:15;;;;;;;;;;;22.60;99.90;;;;;;5095273;28;19912;-55
2022/07/26 00:32:41;;;;;;;;;;;22.70;99.90;;;;;;5094200;28;19909;-56
2022/07/26 00:35:07;;;;;;;;;;;22.80;99.90;;;;;;5094048;28;19951;-60
2022/07/26 00:37:32;;;;;;;;;;;22.90;99.90;;;;;;5091108;28;20080;-57
2022/07/26 00:39:58;;;;;;;;;;;22.90;99.90;;;;;;5075206;28;19912;-57
2022/07/26 00:42:23;;;;;;;;;;;23.00;99.90;;;;;;5082522;28;19919;-53
2022/07/26 00:44:49;;;;;;;;;;;23.00;99.90;;;;;;5093099;28;19919;-54
2022/07/26 00:47:15;;;;;;;;;;;23.00;99.90;;;;;;5093886;28;19981;-57
2022/07/26 00:49:41;;;;;;;;;;;23.00;99.90;;;;;;5094163;28;19915;-58
2022/07/26 00:52:07;;;;;;;;;;;23.10;99.90;;;;;;5094387;28;19916;-57
2022/07/26 00:54:33;;;;;;;;;;;23.10;99.90;;;;;;5095100;28;19908;-56
2022/07/26 00:56:58;;;;;;;;;;;22.90;99.90;;;;;;5091418;28;20295;-57
2022/07/26 00:59:24;;;;;;;;;;;22.70;99.90;;;;;;5093796;28;19913;-54
2022/07/26 01:01:50;;;;;;;;;;;22.60;99.90;;;;;;5093065;28;20069;-58
2022/07/26 01:04:15;;;;;;;;;;;22.60;99.90;;;;;;5073160;28;19913;-56
2022/07/26 01:06:41;;;;;;;;;;;22.70;99.90;;;;;;5072381;28;20006;-57
2022/07/26 01:09:07;;;;;;;;;;;22.70;99.90;;;;;;5072843;28;20398;-55
2022/07/26 01:11:32;;;;;;;;;;;22.70;99.90;;;;;;5073799;28;19928;-57
2022/07/26 01:13:58;;;;;;;;;;;22.60;99.90;;;;;;5073600;28;20294;-55
2022/07/26 01:16:24;;;;;;;;;;;22.70;99.90;;;;;;5073341;28;20177;-59
2022/07/26 01:18:50;;;;;;;;;;;22.70;99.90;;;;;;5093537;28;19912;-57
2022/07/26 01:21:15;;;;;;;;;;;22.60;99.90;;;;;;5093389;28;19918;-55
2022/07/26 01:23:42;;;;;;;;;;;22.60;99.90;;;;;;5091442;28;19912;-56
2022/07/26 01:26:08;;;;;;;;;;;22.60;99.90;;;;;;5093900;28;19908;-54
2022/07/26 01:28:34;;;;;;;;;;;22.70;99.90;;;;;;5093310;28;20371;-58
2022/07/26 01:31:00;;;;;;;;;;;22.70;99.90;;;;;;5094221;28;19912;-56
2022/07/26 01:33:26;;;;;;;;;;;22.80;99.90;;;;;;5078893;28;19913;-56
2022/07/26 01:35:52;;;;;;;;;;;22.80;99.90;;;;;;5076973;28;19966;-55
2022/07/26 01:38:18;;;;;;;;;;;22.80;99.90;;;;;;5093418;28;19912;-54
2022/07/26 01:40:44;;;;;;;;;;;22.80;99.90;;;;;;5087037;28;20435;-57
2022/07/26 01:43:09;;;;;;;;;;;22.70;99.90;;;;;;5075081;28;19936;-56
2022/07/26 01:45:35;;;;;;;;;;;22.50;99.90;;;;;;5091388;28;19936;-53
2022/07/26 01:48:00;;;;;;;;;;;22.60;99.90;;;;;;5091658;28;19938;-55
2022/07/26 01:50:26;;;;;;;;;;;22.60;99.90;;;;;;5091210;28;20251;-52
2022/07/26 01:52:51;;;;;;;;;;;22.50;99.90;;;;;;5072951;28;19912;-57
2022/07/26 01:55:17;;;;;;;;;;;22.40;99.90;;;;;;5073143;28;19973;-54
2022/07/26 01:57:45;;;;;;;;;;;22.00;99.90;;;;;;5073631;28;19912;-55
2022/07/26 02:00:11;;;;;;;;;;;21.80;99.90;;;;;;5081301;28;19912;-54
2022/07/26 02:02:37;;;;;;;;;;;21.80;99.90;;;;;;5075783;28;19923;-53
2022/07/26 02:05:03;;;;;;;;;;;21.60;99.90;;;;;;5077468;28;20278;-55
2022/07/26 02:07:31;;;;;;;;;;;21.70;99.90;;;;;;5092080;28;19919;-52
2022/07/26 02:09:57;;;;;;;;;;;21.70;99.90;;;;;;5094113;28;20028;-56
2022/07/26 02:12:23;;;;;;;;;;;21.70;99.90;;;;;;5076466;28;19966;-55
2022/07/26 02:14:48;;;;;;;;;;;21.50;99.90;;;;;;5079153;28;19908;-57
2022/07/26 02:17:14;;;;;;;;;;;21.50;99.90;;;;;;5096319;28;19916;-55
2022/07/26 02:19:39;;;;;;;;;;;21.30;99.90;;;;;;5090167;28;19963;-52
2022/07/26 02:22:05;;;;;;;;;;;21.30;99.90;;;;;;5080995;28;20358;-55
2022/07/26 02:24:31;;;;;;;;;;;21.30;99.90;;;;;;5096012;28;20372;-57
2022/07/26 02:26:57;;;;;;;;;;;21.10;99.90;;;;;;5095727;28;20268;-59
2022/07/26 02:29:23;;;;;;;;;;;21.00;99.90;;;;;;5094005;28;19975;-56
2022/07/26 02:31:49;;;;;;;;;;;20.80;99.90;;;;;;5092944;28;19908;-59
2022/07/26 02:34:15;;;;;;;;;;;20.90;99.90;;;;;;5097363;28;19919;-57
2022/07/26 02:36:41;;;;;;;;;;;20.90;99.90;;;;;;5095949;28;19977;-59
2022/07/26 02:39:06;;;;;;;;;;;20.70;99.90;;;;;;5096405;28;19908;-58
2022/07/26 02:41:32;;;;;;;;;;;20.70;99.90;;;;;;5077740;28;19916;-59
2022/07/26 02:43:57;;;;;;;;;;;20.70;99.90;;;;;;5085115;28;19994;-57
2022/07/26 02:46:23;;;;;;;;;;;20.60;99.90;;;;;;5095069;28;19912;-59
2022/07/26 02:48:49;;;;;;;;;;;20.60;99.90;;;;;;5096768;28;19942;-60
2022/07/26 02:51:15;;;;;;;;;;;20.40;99.90;;;;;;5077438;28;19913;-58
2022/07/26 02:53:40;;;;;;;;;;;20.40;99.90;;;;;;5076308;28;19912;-59
2022/07/26 02:56:06;;;;;;;;;;;20.60;99.90;;;;;;5095056;28;20049;-57
2022/07/26 02:58:32;;;;;;;;;;;20.50;99.90;;;;;;5096913;28;19934;-58
2022/07/26 03:00:57;;;;;;;;;;;20.60;99.90;;;;;;5079599;28;20281;-57
2022/07/26 03:03:23;;;;;;;;;;;20.60;99.90;;;;;;5076358;28;19920;-59
2022/07/26 03:05:48;;;;;;;;;;;20.60;99.90;;;;;;5079911;28;19924;-58
2022/07/26 03:08:14;;;;;;;;;;;20.70;99.90;;;;;;5094848;28;20011;-59
2022/07/26 03:10:39;;;;;;;;;;;20.60;99.90;;;;;;5097317;28;19919;-59
2022/07/26 03:13:05;;;;;;;;;;;20.70;99.90;;;;;;5096980;28;19913;-59
2022/07/26 03:15:30;;;;;;;;;;;20.60;99.90;;;;;;5094721;28;19916;-58
2022/07/26 03:17:56;;;;;;;;;;;20.60;99.90;;;;;;5095482;28;19916;-60
2022/07/26 03:20:21;;;;;;;;;;;20.50;99.90;;;;;;5071912;28;19913;-59
2022/07/26 03:22:47;;;;;;;;;;;20.50;99.90;;;;;;5083061;28;19919;-58
2022/07/26 03:25:13;;;;;;;;;;;20.40;99.90;;;;;;5093960;28;19934;-58
2022/07/26 03:27:39;;;;;;;;;;;20.30;99.90;;;;;;5095571;28;19912;-55
2022/07/26 03:30:04;;;;;;;;;;;20.30;99.90;;;;;;5095424;28;19915;-59
2022/07/26 03:32:30;;;;;;;;;;;20.00;99.90;;;;;;5094608;28;19920;-59
2022/07/26 03:34:56;;;;;;;;;;;20.10;99.90;;;;;;5084445;28;19942;-58
2022/07/26 03:37:22;;;;;;;;;;;20.30;99.90;;;;;;5074048;28;19975;-55
2022/07/26 03:39:47;;;;;;;;;;;20.30;99.90;;;;;;5085116;28;19917;-57
2022/07/26 03:42:13;;;;;;;;;;;20.40;99.90;;;;;;5075649;28;19909;-57
2022/07/26 03:44:38;;;;;;;;;;;20.50;99.90;;;;;;5089089;28;19916;-56
2022/07/26 03:47:04;;;;;;;;;;;20.30;99.90;;;;;;5095327;28;19958;-56
2022/07/26 03:49:30;;;;;;;;;;;20.40;99.90;;;;;;5095617;28;19912;-55
2022/07/26 03:51:55;;;;;;;;;;;20.30;99.90;;;;;;5095325;28;19922;-58
2022/07/26 03:54:21;;;;;;;;;;;20.30;99.90;;;;;;5080480;28;19923;-54
2022/07/26 03:56:46;;;;;;;;;;;20.40;99.90;;;;;;5075886;28;19912;-55
2022/07/26 03:59:12;;;;;;;;;;;20.40;99.90;;;;;;5088179;28;20346;-58
2022/07/26 04:01:41;;;;;;;;;;;20.40;99.90;;;;;;5095930;28;20333;-56
2022/07/26 04:04:08;;;;;;;;;;;20.40;99.90;;;;;;5077102;28;19919;-57
2022/07/26 04:06:34;;;;;;;;;;;20.40;99.90;;;;;;5074533;28;19916;-56
2022/07/26 04:08:59;;;;;;;;;;;20.40;99.90;;;;;;5091294;28;19924;-58
2022/07/26 04:11:25;;;;;;;;;;;20.50;99.90;;;;;;5094493;28;19913;-57
2022/07/26 04:13:50;;;;;;;;;;;20.60;99.90;;;;;;5078254;28;20464;-57
2022/07/26 04:16:16;;;;;;;;;;;20.60;99.90;;;;;;5089250;28;19920;-56
2022/07/26 04:18:41;;;;;;;;;;;20.50;99.90;;;;;;5086645;28;19923;-57
2022/07/26 04:21:07;;;;;;;;;;;20.30;99.90;;;;;;5094362;28;19912;-56
2022/07/26 04:23:32;;;;;;;;;;;20.20;99.90;;;;;;5093491;28;19912;-55
2022/07/26 04:25:58;;;;;;;;;;;20.00;99.90;;;;;;5093769;28;19912;-58
2022/07/26 04:28:27;;;;;;;;;;;20.00;99.90;;;;;;5093651;28;19963;-59
2022/07/26 04:30:53;;;;;;;;;;;19.70;99.90;;;;;;5094837;28;19912;-56
2022/07/26 04:33:19;;;;;;;;;;;19.50;99.90;;;;;;5094353;28;19912;-56
2022/07/26 04:35:45;;;;;;;;;;;19.30;99.90;;;;;;5094674;28;19916;-59
2022/07/26 04:38:10;;;;;;;;;;;19.40;99.90;;;;;;5084303;28;20623;-58
2022/07/26 04:40:36;;;;;;;;;;;19.70;99.90;;;;;;5073000;28;19913;-59
2022/07/26 04:43:01;;;;;;;;;;;19.90;99.90;;;;;;5082717;28;19912;-57
2022/07/26 04:45:27;;;;;;;;;;;20.00;99.90;;;;;;5094433;28;19920;-56
2022/07/26 04:47:53;;;;;;;;;;;20.20;99.90;;;;;;5094095;28;19916;-57
2022/07/26 04:50:20;;;;;;;;;;;20.30;99.90;;;;;;5094468;28;19970;-58
2022/07/26 04:52:46;;;;;;;;;;;20.20;99.90;;;;;;5093043;28;19952;-54
2022/07/26 04:55:12;;;;;;;;;;;20.10;99.90;;;;;;5093343;28;19912;-52
2022/07/26 04:57:37;;;;;;;;;;;20.10;99.90;;;;;;5087137;28;20379;-56
2022/07/26 05:00:04;;;;;;;;;;;20.10;99.90;;;;;;5074172;28;19927;-49
2022/07/26 05:02:29;;;;;;;;;;;19.90;99.90;;;;;;5078112;28;19916;-55
2022/07/26 05:04:55;;;;;;;;;;;20.20;99.90;;;;;;5073577;28;20299;-52
2022/07/26 05:07:20;;;;;;;;;;;20.40;99.90;;;;;;5073758;28;19916;-51
2022/07/26 05:09:46;;;;;;;;;;;20.30;99.90;;;;;;5076178;28;19912;-54
2022/07/26 05:12:11;;;;;;;;;;;20.10;99.90;;;;;;5093814;28;19938;-55
2022/07/26 05:14:37;;;;;;;;;;;19.90;99.90;;;;;;5089252;28;19920;-51
2022/07/26 05:17:03;;;;;;;;;;;19.90;99.90;;;;;;5073071;28;20372;-54
2022/07/26 05:19:29;;;;;;;;;;;19.90;99.90;;;;;;5076246;28;19913;-49
2022/07/26 05:21:54;;;;;;;;;;;20.00;99.90;;;;;;5094213;28;20629;-55
2022/07/26 05:24:20;;;;;;;;;;;19.90;99.90;;;;;;5094241;28;19916;-57
2022/07/26 05:26:45;;;;;;;;;;;19.80;99.90;;;;;;5094715;28;19925;-57
2022/07/26 05:29:11;;;;;;;;;;;19.90;99.90;;;;;;5087949;28;19920;-50
2022/07/26 05:31:36;;;;;;;;;;;19.90;99.90;;;;;;5087421;28;19912;-54
2022/07/26 05:34:02;;;;;;;;;;;19.80;99.90;;;;;;5090474;28;19923;-55
2022/07/26 05:36:28;;;;;;;;;;;19.70;99.90;;;;;;5072891;28;19913;-55
2022/07/26 05:38:54;;;;;;;;;;;19.80;99.90;;;;;;5075392;28;19912;-54
2022/07/26 05:41:19;;;;;;;;;;;19.70;99.90;;;;;;5081878;28;19924;-55
2022/07/26 05:43:45;;;;;;;;;;;19.70;99.90;;;;;;5078394;28;20004;-53
2022/07/26 05:46:10;;;;;;;;;;;19.60;99.90;;;;;;5074473;28;19916;-55
2022/07/26 05:48:36;;;;;;;;;;;19.60;99.90;;;;;;5086736;28;19927;-56
2022/07/26 05:51:02;;;;;;;;;;;19.70;99.90;;;;;;5093403;28;19908;-52
2022/07/26 05:53:27;;;;;;;;;;;19.70;99.90;;;;;;5094059;28;20443;-51
2022/07/26 05:55:53;;;;;;;;;;;19.70;99.90;;;;;;5093589;28;19923;-52
2022/07/26 05:58:18;;;;;;;;;;;19.90;99.90;;;;;;5082178;28;19921;-55
2022/07/26 06:00:44;;;;;;;;;;;19.70;99.90;;;;;;5083547;28;19917;-53
2022/07/26 06:03:22;;;;;;;;;;;19.90;99.90;;;;;;5072983;28;19993;-55
2022/07/26 06:05:51;;;;;;;;;;;20.00;99.90;;;;;;5072440;28;19981;-50
2022/07/26 06:08:17;;;;;;;;;;;20.10;99.90;;;;;;5071940;28;20011;-55
2022/07/26 06:10:43;;;;;;;;;;;20.30;99.90;;;;;;5089803;28;19956;-56
2022/07/26 06:13:08;;;;;;;;;;;20.40;99.80;;;;;;5093210;28;19958;-52
2022/07/26 06:15:34;;;;;;;;;;;20.30;99.70;;;;;;5085741;28;19970;-52
2022/07/26 06:17:59;;;;;;;;;;;20.20;99.70;;;;;;5072936;28;19966;-55
2022/07/26 06:20:25;;;;;;;;;;;20.30;99.70;;;;;;5090306;28;19916;-57
2022/07/26 06:22:51;;;;;;;;;;;20.30;99.70;;;;;;5092503;28;19923;-56
2022/07/26 06:25:17;;;;;;;;;;;20.20;99.60;;;;;;5078279;28;19916;-50
2022/07/26 06:27:42;;;;;;;;;;;20.30;99.40;;;;;;5076078;28;20318;-50
2022/07/26 06:30:09;;;;;;;;;;;20.30;99.50;;;;;;5090270;28;19912;-53
2022/07/26 06:32:34;;;;;;;;;;;20.50;99.40;;;;;;5072380;28;19919;-51
2022/07/26 06:35:00;;;;;;;;;;;20.80;98.50;;;;;;5082415;28;19920;-53
2022/07/26 06:37:25;;;;;;;;;;;20.80;98.50;;;;;;5092425;28;19963;-49
2022/07/26 06:39:51;;;;;;;;;;;20.80;98.50;;;;;;5084573;28;20325;-51
2022/07/26 06:42:17;;;;;;;;;;;20.80;98.10;;;;;;5092363;28;19918;-49
2022/07/26 06:44:45;;;;;;;;;;;20.80;97.70;;;;;;5084860;28;19912;-52
2022/07/26 06:47:10;;;;;;;;;;;20.90;97.80;;;;;;5071963;28;19920;-52
2022/07/26 06:49:36;;;;;;;;;;;21.00;97.50;;;;;;5086971;28;19912;-57
2022/07/26 06:52:02;;;;;;;;;;;21.10;97.60;;;;;;5092859;28;19931;-50
2022/07/26 06:54:30;;;;;;;;;;;20.80;98.00;;;;;;5079824;28;19919;-50
2022/07/26 06:56:55;;;;;;;;;;;20.90;97.80;;;;;;5077267;28;20502;-55
2022/07/26 06:59:20;;;;;;;;;;;21.00;97.70;;;;;;5076023;28;19960;-52
2022/07/26 07:01:46;;;;;;;;;;;20.80;97.80;;;;;;5077108;28;20008;-54
2022/07/26 07:04:12;;;;;;;;;;;21.10;97.70;;;;;;5075859;28;19923;-48
2022/07/26 07:06:37;;;;;;;;;;;21.20;97.50;;;;;;5088119;28;19963;-51
2022/07/26 07:09:03;;;;;;;;;;;21.40;97.30;;;;;;5096197;28;20385;-57
2022/07/26 07:11:28;;;;;;;;;;;21.60;96.50;;;;;;5082545;28;20410;-50
2022/07/26 07:13:54;;;;;;;;;;;21.40;95.90;;;;;;5076446;28;19962;-51
2022/07/26 07:16:19;;;;;;;;;;;21.30;96.30;;;;;;5086556;28;19912;-48
2022/07/26 07:18:45;;;;;;;;;;;21.60;96.00;;;;;;5095287;28;19917;-55
2022/07/26 07:21:10;;;;;;;;;;;21.60;96.20;;;;;;5079526;28;20391;-51
2022/07/26 07:23:36;;;;;;;;;;;21.60;95.90;;;;;;5090688;28;19917;-53
2022/07/26 07:26:02;;;;;;;;;;;21.60;95.60;;;;;;5094418;28;19919;-54
2022/07/26 07:28:27;;;;;;;;;;;21.70;96.10;;;;;;5077691;28;20403;-54
2022/07/26 07:30:53;;;;;;;;;;;21.90;95.20;;;;;;5082950;28;19916;-52
2022/07/26 07:33:18;;;;;;;;;;;21.60;95.10;;;;;;5075283;28;20303;-56
2022/07/26 07:35:44;;;;;;;;;;;21.50;95.50;;;;;;5073684;28;19951;-57
2022/07/26 07:38:09;;;;;;;;;;;21.40;95.50;;;;;;5074559;28;20011;-54
2022/07/26 07:40:35;;;;;;;;;;;21.40;96.00;;;;;;5081907;28;19920;-54
2022/07/26 07:43:02;;;;;;;;;;;21.70;95.60;;;;;;5095670;28;19920;-57
2022/07/26 07:45:27;;;;;;;;;;;21.70;95.30;;;;;;5094918;28;19912;-55
2022/07/26 07:47:53;;;;;;;;;;;21.60;95.40;;;;;;5094558;28;19977;-50
2022/07/26 07:50:19;;;;;;;;;;;21.80;95.20;;;;;;5091147;28;19916;-56
2022/07/26 07:52:44;;;;;;;;;;;21.70;95.00;;;;;;5076865;28;19920;-58
2022/07/26 07:55:10;;;;;;;;;;;21.70;95.40;;;;;;5092852;28;20280;-57
2022/07/26 07:57:35;;;;;;;;;;;21.80;95.00;;;;;;5082991;28;19958;-55
2022/07/26 08:00:02;;;;;;;;;;;22.00;94.90;;;;;;5085073;28;19916;-54
2022/07/26 08:02:28;;;;;;;;;;;21.80;95.20;;;;;;5082337;28;20323;-54
2022/07/26 08:04:54;;;;;;;;;;;21.90;95.40;;;;;;5092066;28;19916;-57
2022/07/26 08:07:20;;;;;;;;;;;21.60;95.10;;;;;;5075212;28;19948;-52
2022/07/26 08:09:45;;;;;;;;;;;21.70;95.10;;;;;;5086113;28;19958;-55
2022/07/26 08:12:11;;;;;;;;;;;21.70;95.00;;;;;;5075586;28;19913;-58
2022/07/26 08:14:36;;;;;;;;;;;21.70;94.80;;;;;;5094412;28;19966;-54
2022/07/26 08:17:02;;;;;;;;;;;21.80;95.00;;;;;;5093923;28;20426;-54
2022/07/26 08:19:28;;;;;;;;;;;22.00;94.20;;;;;;5076882;28;19921;-54
2022/07/26 08:21:53;;;;;;;;;;;22.10;94.20;;;;;;5094031;28;20379;-53
2022/07/26 08:24:19;;;;;;;;;;;22.10;93.80;;;;;;5075064;28;20008;-54
2022/07/26 08:26:44;;;;;;;;;;;22.10;93.80;;;;;;5071417;28;19912;-56
2022/07/26 08:29:10;;;;;;;;;;;22.20;94.20;;;;;;5086348;28;19920;-55
2022/07/26 08:31:35;;;;;;;;;;;22.30;93.60;;;;;;5087597;28;19912;-48
2022/07/26 08:34:01;;;;;;;;;;;22.10;93.50;;;;;;5092965;28;19912;-56
2022/07/26 08:36:27;;;;;;;;;;;22.20;93.60;;;;;;5092219;28;19952;-54
2022/07/26 08:38:52;;;;;;;;;;;22.00;94.20;;;;;;5095091;28;19959;-59
2022/07/26 08:41:18;;;;;;;;;;;22.10;94.30;;;;;;5088933;28;19966;-56
2022/07/26 08:43:44;;;;;;;;;;;22.20;94.40;;;;;;5086490;28;19913;-54
2022/07/26 08:46:10;;;;;;;;;;;22.40;93.90;;;;;;5093129;28;19912;-54
2022/07/26 08:48:36;;;;;;;;;;;22.50;93.70;;;;;;5092902;28;20326;-55
2022/07/26 08:51:06;;;;;;;;;;;22.60;93.40;;;;;;5091733;28;19912;-55
2022/07/26 08:53:32;;;;;;;;;;;22.70;93.30;;;;;;5075202;28;19908;-55
2022/07/26 08:55:58;;;;;;;;;;;22.90;93.10;;;;;;5092822;28;20283;-57
2022/07/26 08:58:23;;;;;;;;;;;22.90;92.70;;;;;;5092579;28;19919;-54
2022/07/26 09:01:01;;;;;;;;;;;22.80;92.80;;;;;;5072507;28;19916;-55
2022/07/26 09:03:27;;;;;;;;;;;23.10;92.40;;;;;;5072952;28;20317;-54
2022/07/26 09:05:52;;;;;;;;;;;23.10;92.00;;;;;;5087554;28;19923;-54
2022/07/26 09:08:25;;;;;;;;;;;23.30;91.80;;;;;;5072964;28;19919;-57
2022/07/26 09:10:51;;;;;;;;;;;23.20;91.50;;;;;;5093234;28;19924;-51
2022/07/26 09:13:17;;;;;;;;;;;23.20;91.60;;;;;;5093129;28;19912;-53
2022/07/26 09:15:42;;;;;;;;;;;23.20;92.00;;;;;;5073477;28;19917;-55
2022/07/26 09:18:23;;;;;;;;;;;23.50;91.50;;;;;;5072607;28;20257;-54
2022/07/26 09:20:49;;;;;;;;;;;23.60;91.00;;;;;;5093240;28;19912;-52
2022/07/26 09:23:15;;;;;;;;;;;23.50;90.50;;;;;;5085187;28;19923;-54
2022/07/26 09:25:41;;;;;;;;;;;23.60;90.90;;;;;;5093534;28;20148;-56
2022/07/26 09:28:23;;;;;;;;;;;23.50;90.50;;;;;;5092416;28;20024;-55
2022/07/26 09:30:53;;;;;;;;;;;23.70;90.20;;;;;;5091397;28;20037;-53
2022/07/26 09:33:18;;;;;;;;;;;23.70;90.00;;;;;;5094082;28;19964;-56
2022/07/26 09:35:58;;;;;;;;;;;23.80;90.20;;;;;;5089573;28;20003;-52
2022/07/26 09:38:37;;;;;;;;;;;23.80;89.30;;;;;;5074490;28;20389;-56
2022/07/26 09:41:15;;;;;;;;;;;23.60;89.40;;;;;;5091615;28;19934;-58
2022/07/26 09:43:40;;;;;;;;;;;23.70;90.00;;;;;;5089535;28;19912;-55
2022/07/26 09:46:06;;;;;;;;;;;24.10;88.30;;;;;;5084551;28;19912;-48
2022/07/26 09:48:32;;;;;;;;;;;24.30;88.20;;;;;;5071064;28;20007;-51
2022/07/26 09:50:57;;;;;;;;;;;24.30;88.40;;;;;;5072042;28;19916;-55
2022/07/26 09:53:23;;;;;;;;;;;24.40;87.10;;;;;;5078635;28;19916;-53
2022/07/26 09:55:48;;;;;;;;;;;24.50;86.50;;;;;;5097652;28;19924;-51
2022/07/26 09:58:15;;;;;;;;;;;24.30;87.60;;;;;;5079377;28;20356;-56
2022/07/26 10:00:41;;;;;;;;;;;24.30;86.80;;;;;;5088111;28;19953;-54
2022/07/26 10:03:06;;;;;;;;;;;24.20;86.20;;;;;;5073442;28;19909;-56
2022/07/26 10:05:33;;;;;;;;;;;24.20;86.00;;;;;;5072204;28;19912;-56
2022/07/26 10:07:59;;;;;;;;;;;24.40;85.90;;;;;;5087233;28;19912;-55
2022/07/26 10:10:27;;;;;;;;;;;24.40;85.30;;;;;;5071442;28;19928;-58
2022/07/26 10:12:53;;;;;;;;;;;24.10;85.90;;;;;;5073192;28;19909;-58
2022/07/26 10:15:38;;;;;;;;;;;23.90;85.70;;;;;;5075688;28;19917;-58
2022/07/26 10:18:04;;;;;;;;;;;23.70;86.10;;;;;;5071178;28;20291;-58
2022/07/26 10:20:50;;;;;;;;;;;23.90;84.70;;;;;;5084784;28;19958;-57
2022/07/26 10:23:31;;;;;;;;;;;23.60;86.10;;;;;;5092290;28;19908;-55
2022/07/26 10:25:56;;;;;;;;;;;23.50;86.90;;;;;;5072096;28;19919;-55
2022/07/26 10:28:25;;;;;;;;;;;23.70;86.40;;;;;;5072089;28;20007;-56
2022/07/26 10:30:51;;;;;;;;;;;24.10;85.90;;;;;;5083982;28;19923;-53
2022/07/26 10:33:18;;;;;;;;;;;24.00;85.90;;;;;;5094246;28;19931;-53
2022/07/26 10:35:44;;;;;;;;;;;23.90;86.30;;;;;;5081515;28;19923;-57
2022/07/26 10:38:20;;;;;;;;;;;23.90;86.30;;;;;;5100432;28;19924;-55
2022/07/26 10:41:04;;;;;;;;;;;23.90;86.50;;;;;;5096799;28;19908;-53
2022/07/26 10:43:31;;;;;;;;;;;24.00;86.50;;;;;;5096353;28;19915;-51
2022/07/26 10:46:15;;;;;;;;;;;24.30;85.50;;;;;;5094958;28;19924;-55
2022/07/26 10:49:02;;;;;;;;;;;24.80;84.30;;;;;;5096878;28;19920;-54
2022/07/26 10:51:30;;;;;;;;;;;24.90;83.50;;;;;;5096495;28;20402;-54
2022/07/26 10:54:16;;;;;;;;;;;24.90;82.30;;;;;;5095347;28;19954;-55
2022/07/26 10:56:41;;;;;;;;;;;25.00;82.60;;;;;;5095078;28;20375;-53
2022/07/26 10:59:07;;;;;;;;;;;24.80;82.20;;;;;;5095810;28;19913;-50
2022/07/26 11:01:40;;;;;;;;;;;24.70;83.00;;;;;;5095605;28;20002;-54
2022/07/26 11:04:16;;;;;;;;;;;24.70;82.10;;;;;;5096224;28;19969;-54
2022/07/26 11:06:41;;;;;;;;;;;24.90;82.30;;;;;;5095234;28;19912;-48
2022/07/26 11:09:11;;;;;;;;;;;24.70;79.90;;;;;;5094923;28;19912;-52
2022/07/26 11:11:37;;;;;;;;;;;24.40;80.30;;;;;;5095586;28;20371;-53
2022/07/26 11:14:03;;;;;;;;;;;24.20;80.80;;;;;;5096245;28;19948;-53
2022/07/26 11:16:35;;;;;;;;;;;24.20;81.50;;;;;;5095374;28;19920;-49
2022/07/26 11:19:10;;;;;;;;;;;24.20;82.00;;;;;;5096164;28;19908;-56
2022/07/26 11:21:36;;;;;;;;;;;24.30;82.60;;;;;;5096001;28;19935;-53
2022/07/26 11:24:02;;;;;;;;;;;24.10;82.50;;;;;;5095651;28;20364;-51
2022/07/26 11:26:30;;;;;;;;;;;24.00;83.00;;;;;;5095653;28;19969;-52
2022/07/26 11:28:56;;;;;;;;;;;24.10;83.20;;;;;;5095847;28;19923;-51
2022/07/26 11:31:48;;;;;;;;;;;24.00;83.30;;;;;;5095212;28;19912;-48
2022/07/26 11:34:21;;;;;;;;;;;24.00;83.20;;;;;;5092996;28;20322;-55
2022/07/26 11:36:50;;;;;;;;;;;24.00;82.30;;;;;;5094728;28;19939;-59
2022/07/26 11:39:20;;;;;;;;;;;24.00;82.80;;;;;;5095230;28;19912;-53
2022/07/26 11:41:46;;;;;;;;;;;24.00;82.80;;;;;;5094323;28;19951;-50
2022/07/26 11:44:16;;;;;;;;;;;24.10;82.30;;;;;;5094202;28;19963;-50
2022/07/26 11:46:51;;;;;;;;;;;24.20;81.80;;;;;;5093729;28;19928;-57
2022/07/26 11:49:18;;;;;;;;;;;24.20;81.90;;;;;;5095036;28;19916;-53
2022/07/26 11:51:51;;;;;;;;;;;24.20;83.00;;;;;;5094837;28;19977;-57
2022/07/26 11:54:17;;;;;;;;;;;24.00;84.00;;;;;;5094846;28;20006;-51
2022/07/26 11:56:53;;;;;;;;;;;24.00;83.60;;;;;;5094093;28;20008;-57
2022/07/26 11:59:18;;;;;;;;;;;24.00;84.20;;;;;;5093401;28;19912;-50
2022/07/26 12:01:45;;;;;;;;;;;24.10;84.90;;;;;;5094102;28;19915;-57
2022/07/26 12:04:21;;;;;;;;;;;24.00;84.00;;;;;;5094581;28;19912;-49
2022/07/26 12:06:47;;;;;;;;;;;23.90;84.00;;;;;;5093853;28;19916;-53
2022/07/26 12:09:26;;;;;;;;;;;23.90;85.10;;;;;;5094907;28;19931;-51
2022/07/26 12:11:51;;;;;;;;;;;24.00;84.80;;;;;;5094940;28;19923;-57
2022/07/26 12:14:23;;;;;;;;;;;23.90;81.90;;;;;;5094474;28;20520;-56
2022/07/26 12:16:48;;;;;;;;;;;23.80;81.50;;;;;;5094598;28;19916;-55
2022/07/26 12:19:17;;;;;;;;;;;23.90;81.80;;;;;;5093975;28;19916;-55
2022/07/26 12:21:42;;;;;;;;;;;23.90;81.10;;;;;;5080070;28;19916;-56
2022/07/26 12:24:08;;;;;;;;;;;24.00;81.70;;;;;;5094251;28;19908;-55
2022/07/26 12:26:35;;;;;;;;;;;24.20;81.20;;;;;;5089285;28;19917;-56
2022/07/26 12:29:23;;;;;;;;;;;24.20;82.30;;;;;;5077158;28;20431;-57
2022/07/26 12:31:46;;;;;;;;;;;24.20;81.40;;;;;;5087672;28;19920;-56
2022/07/26 12:34:18;;;;;;;;;;;24.20;82.20;;;;;;5073374;28;20441;-59
2022/07/26 12:36:46;;;;;;;;;;;24.30;82.30;;;;;;5077199;28;19916;-58
2022/07/26 12:39:21;;;;;;;;;;;24.20;82.00;;;;;;5074485;28;19912;-57
2022/07/26 12:41:49;;;;;;;;;;;24.10;82.20;;;;;;5074877;28;19917;-55
2022/07/26 12:44:15;;;;;;;;;;;24.20;81.70;;;;;;5083274;28;19999;-53
2022/07/26 12:46:43;;;;;;;;;;;24.20;82.40;;;;;;5089702;28;19916;-53
2022/07/26 12:49:09;;;;;;;;;;;24.00;83.10;;;;;;5115940;28;20393;-53
2022/07/26 12:51:35;;;;;;;;;;;23.90;84.20;;;;;;5114934;28;20442;-54
2022/07/26 12:54:02;;;;;;;;;;;23.90;84.50;;;;;;5113690;28;19918;-56
2022/07/26 12:56:27;;;;;;;;;;;23.80;85.00;;;;;;5113961;28;19916;-51
2022/07/26 12:58:59;;;;;;;;;;;23.60;87.10;;;;;;5114546;28;19919;-51
2022/07/26 13:01:25;;;;;;;;;;;23.20;90.30;;;;;;5114117;28;20010;-54
2022/07/26 13:03:50;;;;;;;;;;;22.90;91.60;;;;;;5100386;28;20005;-55
2022/07/26 13:06:16;;;;;;;;;;;22.70;92.30;;;;;;5093309;28;19912;-54
2022/07/26 13:08:41;;;;;;;;;;;22.60;92.60;;;;;;5092682;28;19918;-54
2022/07/26 13:11:07;;;;;;;;;;;22.50;93.10;;;;;;5094185;28;19935;-52
2022/07/26 13:13:33;;;;;;;;;;;22.50;93.50;;;;;;5088554;28;19923;-53
2022/07/26 13:15:58;;;;;;;;;;;22.50;93.50;;;;;;5083622;28;19931;-56
2022/07/26 13:18:24;;;;;;;;;;;22.70;93.50;;;;;;5078454;28;19917;-54
2022/07/26 13:20:49;;;;;;;;;;;22.60;93.50;;;;;;5093138;28;20612;-52
2022/07/26 13:23:15;;;;;;;;;;;22.60;93.00;;;;;;5092784;28;20008;-54
2022/07/26 13:25:41;;;;;;;;;;;22.60;92.80;;;;;;5086489;28;19920;-53
2022/07/26 13:28:07;;;;;;;;;;;22.60;92.60;;;;;;5089560;28;19915;-51
2022/07/26 13:30:34;;;;;;;;;;;22.40;92.90;;;;;;5091887;28;19916;-53
2022/07/26 13:33:00;;;;;;;;;;;22.30;93.30;;;;;;5092623;28;20367;-52
2022/07/26 13:35:25;;;;;;;;;;;22.40;93.10;;;;;;5090365;28;19920;-53
2022/07/26 13:37:51;;;;;;;;;;;22.40;93.10;;;;;;5089636;28;19931;-53
2022/07/26 13:40:16;;;;;;;;;;;22.50;93.20;;;;;;5079859;28;19996;-51
2022/07/26 13:42:42;;;;;;;;;;;22.60;93.30;;;;;;5071712;28;19998;-55
2022/07/26 13:45:08;;;;;;;;;;;22.80;93.20;;;;;;5086702;28;19916;-56
2022/07/26 13:47:33;;;;;;;;;;;22.80;92.60;;;;;;5092291;28;19912;-54
2022/07/26 13:49:59;;;;;;;;;;;22.90;92.50;;;;;;5083435;28;19913;-54
2022/07/26 13:52:24;;;;;;;;;;;22.90;92.40;;;;;;5087573;28;19912;-51
2022/07/26 13:54:50;;;;;;;;;;;22.70;92.50;;;;;;5087809;28;19916;-56
2022/07/26 13:57:15;;;;;;;;;;;22.70;92.80;;;;;;5088126;28;19928;-56
2022/07/26 13:59:41;;;;;;;;;;;22.70;93.00;;;;;;5099492;28;20316;-55
2022/07/26 14:02:06;;;;;;;;;;;22.90;92.90;;;;;;5093702;28;19985;-55
2022/07/26 14:04:32;;;;;;;;;;;23.10;92.30;;;;;;5093368;28;19915;-54
2022/07/26 14:06:57;;;;;;;;;;;23.20;91.90;;;;;;5094985;28;20007;-56
2022/07/26 14:09:23;;;;;;;;;;;23.00;91.80;;;;;;5093631;28;19961;-54
2022/07/26 14:11:49;;;;;;;;;;;22.70;91.80;;;;;;5090602;28;19923;-52
2022/07/26 14:14:15;;;;;;;;;;;22.40;92.00;;;;;;5087851;28;20007;-55